createdAt,value
2023-04-30T00:02:24.836Z,7.61
2023-04-30T00:05:12.655Z,7.47
2023-04-30T00:08:00.348Z,7.57
2023-04-30T00:10:50.518Z,7.43
2023-04-30T00:13:38.157Z,7.23
2023-04-30T00:16:26.298Z,7.47
2023-04-30T00:19:19.833Z,7.48
2023-04-30T00:22:07.617Z,7.43
2023-04-30T00:24:55.355Z,7.34
2023-04-30T00:27:42.985Z,7.56
2023-04-30T00:30:30.713Z,7.48
2023-04-30T00:33:18.413Z,7.42
2023-04-30T00:36:06.222Z,7.31
2023-04-30T00:38:54.118Z,7.33
2023-04-30T00:41:41.985Z,7.23
2023-04-30T00:44:29.755Z,7.09
2023-04-30T00:47:18.511Z,7.19
2023-04-30T00:50:06.826Z,7.09
2023-04-30T00:52:54.649Z,6.98
2023-04-30T00:55:44.487Z,7.05
2023-04-30T00:58:32.474Z,7.04
2023-04-30T01:01:20.553Z,7.02
2023-04-30T01:04:08.318Z,7.01
2023-04-30T01:06:57.124Z,6.86
2023-04-30T01:09:44.922Z,6.84
2023-04-30T01:12:47.231Z,6.80
2023-04-30T01:15:37.838Z,6.79
2023-04-30T01:18:31.838Z,6.77
2023-04-30T01:21:20.974Z,6.84
2023-04-30T01:24:34.007Z,6.70
2023-04-30T01:27:54.061Z,6.69
2023-04-30T01:30:45.101Z,6.61
2023-04-30T01:33:33.992Z,6.49
2023-04-30T01:36:36.171Z,6.37
2023-04-30T01:39:39.936Z,6.45
2023-04-30T01:42:38.620Z,6.36
2023-04-30T01:45:56.317Z,6.30
2023-04-30T01:48:53.290Z,6.29
2023-04-30T01:51:47.330Z,6.22
2023-04-30T01:54:56.251Z,6.22
2023-04-30T01:58:09.153Z,6.04
2023-04-30T02:00:57.019Z,5.90
2023-04-30T02:03:44.785Z,5.94
2023-04-30T02:06:32.739Z,6.03
2023-04-30T02:09:20.568Z,6.04
2023-04-30T02:12:08.376Z,5.89
2023-04-30T02:14:57.966Z,5.78
2023-04-30T02:17:45.880Z,5.72
2023-04-30T02:20:36.639Z,5.64
2023-04-30T02:23:24.290Z,5.57
2023-04-30T02:26:11.909Z,5.62
2023-04-30T02:28:59.511Z,5.48
2023-04-30T02:31:47.252Z,5.56
2023-04-30T02:34:35.083Z,5.59
2023-04-30T02:37:24.470Z,5.09
2023-04-30T02:40:12.488Z,5.50
2023-04-30T02:43:01.598Z,5.64
2023-04-30T02:45:49.512Z,5.56
2023-04-30T02:48:37.274Z,5.61
2023-04-30T02:51:28.575Z,5.71
2023-04-30T02:54:16.190Z,5.50
2023-04-30T02:57:04.246Z,5.57
2023-04-30T02:59:52.042Z,5.54
2023-04-30T03:02:40.215Z,5.53
2023-04-30T03:05:28.757Z,5.57
2023-04-30T03:08:18.819Z,5.51
2023-04-30T03:11:06.502Z,5.52
2023-04-30T03:13:57.229Z,5.51
2023-04-30T03:16:45.041Z,5.41
2023-04-30T03:19:33.341Z,5.48
2023-04-30T03:22:24.230Z,5.59
2023-04-30T03:25:12.003Z,5.53
2023-04-30T03:28:00.039Z,5.46
2023-04-30T03:30:47.888Z,5.42
2023-04-30T03:33:35.890Z,5.31
2023-04-30T03:36:23.860Z,5.34
2023-04-30T03:39:11.643Z,5.21
2023-04-30T03:41:59.503Z,5.34
2023-04-30T03:44:47.201Z,5.48
2023-04-30T03:47:36.913Z,5.55
2023-04-30T03:50:24.582Z,5.55
2023-04-30T03:53:12.399Z,5.51
2023-04-30T03:56:00.836Z,5.55
2023-04-30T03:58:48.657Z,5.52
2023-04-30T04:01:38.718Z,5.55
2023-04-30T04:04:26.442Z,5.57
2023-04-30T04:07:15.258Z,5.73
2023-04-30T04:10:03.005Z,5.75
2023-04-30T04:12:52.569Z,5.84
2023-04-30T04:15:43.119Z,5.87
2023-04-30T04:18:31.529Z,5.91
2023-04-30T04:21:19.559Z,5.94
2023-04-30T04:24:08.974Z,6.04
2023-04-30T04:26:57.069Z,6.15
2023-04-30T04:29:44.814Z,6.25
2023-04-30T04:32:33.303Z,6.40
2023-04-30T04:35:21.248Z,6.65
2023-04-30T04:38:14.161Z,6.65
2023-04-30T04:41:02.024Z,7.02
2023-04-30T04:43:52.200Z,7.20
2023-04-30T04:46:44.841Z,7.37
2023-04-30T04:49:35.002Z,7.74
2023-04-30T04:52:23.001Z,8.05
2023-04-30T04:55:13.612Z,8.23
2023-04-30T04:58:01.155Z,8.60
2023-04-30T05:01:44.307Z,9.46
2023-04-30T05:04:32.169Z,10.00
2023-04-30T05:07:20.184Z,10.52
2023-04-30T05:10:08.879Z,11.20
2023-04-30T05:13:04.641Z,11.59
2023-04-30T05:15:56.717Z,11.70
2023-04-30T05:18:44.466Z,11.31
2023-04-30T05:21:32.424Z,11.00
2023-04-30T05:24:20.157Z,11.14
2023-04-30T05:27:07.998Z,11.27
2023-04-30T05:29:56.104Z,11.31
2023-04-30T05:32:49.410Z,11.34
2023-04-30T05:35:39.441Z,11.14
2023-04-30T05:38:27.507Z,11.19
2023-04-30T05:41:15.254Z,11.07
2023-04-30T05:44:05.200Z,11.31
2023-04-30T05:46:52.899Z,11.34
2023-04-30T05:49:40.641Z,11.55
2023-04-30T05:52:28.398Z,11.73
2023-04-30T05:55:16.109Z,11.79
2023-04-30T05:58:06.750Z,12.30
2023-04-30T06:00:54.792Z,12.55
2023-04-30T06:03:44.762Z,12.95
2023-04-30T06:06:32.680Z,13.24
2023-04-30T06:09:22.370Z,13.88
2023-04-30T06:12:10.921Z,14.59
2023-04-30T06:14:59.118Z,14.58
2023-04-30T06:17:46.861Z,15.06
2023-04-30T06:20:34.763Z,15.93
2023-04-30T06:23:22.686Z,15.96
2023-04-30T06:26:10.346Z,16.56
2023-04-30T06:29:01.213Z,17.13
2023-04-30T06:31:49.976Z,17.75
2023-04-30T06:34:39.079Z,18.31
2023-04-30T06:37:26.711Z,18.62
2023-04-30T06:40:14.432Z,18.81
2023-04-30T06:43:02.153Z,18.78
2023-04-30T06:45:50.949Z,18.38
2023-04-30T06:48:41.058Z,17.68
2023-04-30T06:51:28.830Z,17.39
2023-04-30T06:54:16.604Z,17.39
2023-04-30T06:57:04.541Z,17.06
2023-04-30T06:59:52.385Z,17.58
2023-04-30T07:02:40.268Z,17.07
2023-04-30T07:05:28.031Z,17.30
2023-04-30T07:08:15.702Z,17.61
2023-04-30T07:11:04.201Z,17.34
2023-04-30T07:13:51.917Z,17.92
2023-04-30T07:16:39.560Z,18.28
2023-04-30T07:19:27.204Z,19.10
2023-04-30T07:22:14.858Z,19.73
2023-04-30T07:25:02.517Z,19.12
2023-04-30T07:27:53.192Z,18.66
2023-04-30T07:30:43.083Z,18.48
2023-04-30T07:33:30.914Z,19.05
2023-04-30T07:36:18.874Z,19.78
2023-04-30T07:39:06.753Z,20.13
2023-04-30T07:41:57.564Z,20.44
2023-04-30T07:44:53.113Z,20.76
2023-04-30T07:47:41.802Z,20.99
2023-04-30T07:50:36.652Z,21.14
2023-04-30T07:53:26.692Z,20.99
2023-04-30T07:56:14.396Z,21.25
2023-04-30T07:59:04.321Z,21.24
2023-04-30T08:01:52.284Z,21.45
2023-04-30T08:04:40.089Z,21.34
2023-04-30T08:07:33.035Z,21.85
2023-04-30T08:10:23.904Z,22.08
2023-04-30T08:13:13.901Z,21.40
2023-04-30T08:16:01.929Z,22.09
2023-04-30T08:18:50.475Z,22.59
2023-04-30T08:21:38.594Z,22.68
2023-04-30T08:24:26.287Z,22.35
2023-04-30T08:27:13.971Z,22.38
2023-04-30T08:30:01.677Z,22.34
2023-04-30T08:32:49.936Z,22.78
2023-04-30T08:35:40.600Z,22.97
2023-04-30T08:38:29.253Z,23.09
2023-04-30T08:41:17.112Z,23.76
2023-04-30T08:44:13.553Z,24.06
2023-04-30T08:47:02.755Z,22.55
2023-04-30T08:49:50.599Z,22.32
2023-04-30T08:52:39.907Z,23.40
2023-04-30T08:55:28.200Z,23.59
2023-04-30T08:58:16.014Z,23.84
2023-04-30T09:01:08.063Z,23.47
2023-04-30T09:03:56.122Z,22.86
2023-04-30T09:06:44.324Z,22.57
2023-04-30T09:09:41.730Z,23.15
2023-04-30T09:12:29.679Z,23.21
2023-04-30T09:15:17.625Z,23.64
2023-04-30T09:18:08.512Z,23.57
2023-04-30T09:21:01.174Z,23.09
2023-04-30T09:24:03.545Z,23.42
2023-04-30T09:26:51.767Z,22.81
2023-04-30T09:29:39.529Z,23.14
2023-04-30T09:32:27.462Z,23.46
2023-04-30T09:35:32.124Z,23.50
2023-04-30T09:38:33.346Z,23.10
2023-04-30T09:41:28.815Z,23.20
2023-04-30T09:44:37.021Z,23.21
2023-04-30T09:47:30.180Z,23.35
2023-04-30T09:50:20.746Z,24.11
2023-04-30T09:53:10.055Z,23.85
2023-04-30T09:55:59.198Z,23.62
2023-04-30T09:58:52.705Z,23.43
2023-04-30T10:01:41.178Z,23.27
2023-04-30T10:04:40.116Z,23.04
2023-04-30T10:07:41.947Z,23.70
2023-04-30T10:10:29.942Z,24.06
2023-04-30T10:13:20.677Z,24.04
2023-04-30T10:16:18.845Z,24.09
2023-04-30T10:19:23.654Z,24.83
2023-04-30T10:22:15.114Z,25.06
2023-04-30T10:25:03.851Z,25.25
2023-04-30T10:27:54.618Z,22.91
2023-04-30T10:30:47.877Z,23.19
2023-04-30T10:33:50.100Z,24.19
2023-04-30T10:36:48.999Z,23.91
2023-04-30T10:39:38.093Z,23.87
2023-04-30T10:42:25.940Z,24.53
2023-04-30T10:45:13.716Z,24.35
2023-04-30T10:48:04.786Z,24.79
2023-04-30T10:50:55.666Z,24.84
2023-04-30T10:53:44.501Z,24.93
2023-04-30T10:56:35.698Z,25.05
2023-04-30T10:59:24.687Z,24.73
2023-04-30T11:02:15.623Z,24.81
2023-04-30T11:05:08.469Z,24.28
2023-04-30T11:07:59.510Z,23.45
2023-04-30T11:11:01.916Z,22.70
2023-04-30T11:14:00.830Z,23.28
2023-04-30T11:16:54.858Z,23.80
2023-04-30T11:19:53.383Z,23.49
2023-04-30T11:22:41.645Z,23.64
2023-04-30T11:25:40.313Z,24.21
2023-04-30T11:28:29.271Z,24.54
2023-04-30T11:31:17.642Z,24.37
2023-04-30T11:34:07.504Z,24.82
2023-04-30T11:37:01.243Z,24.98
2023-04-30T11:39:49.179Z,24.63
2023-04-30T11:42:46.072Z,24.73
2023-04-30T11:45:38.577Z,24.89
2023-04-30T11:48:31.466Z,24.23
2023-04-30T11:51:25.205Z,24.21
2023-04-30T11:54:17.802Z,23.07
2023-04-30T11:57:06.706Z,23.27
2023-04-30T11:59:55.192Z,23.15
2023-04-30T12:02:46.192Z,23.38
2023-04-30T12:05:33.955Z,23.71
2023-04-30T12:08:21.720Z,23.77
2023-04-30T12:11:20.720Z,24.67
2023-04-30T12:14:12.939Z,24.62
2023-04-30T12:17:01.299Z,24.33
2023-04-30T12:19:49.080Z,24.47
2023-04-30T12:22:37.839Z,23.66
2023-04-30T12:25:29.528Z,23.46
2023-04-30T12:28:17.526Z,23.43
2023-04-30T12:31:08.959Z,23.25
2023-04-30T12:33:57.642Z,23.88
2023-04-30T12:36:45.798Z,24.20
2023-04-30T12:39:53.610Z,24.09
2023-04-30T12:42:45.001Z,24.28
2023-04-30T12:45:45.659Z,24.41
2023-04-30T12:48:47.781Z,24.30
2023-04-30T12:51:36.252Z,24.61
2023-04-30T12:54:31.854Z,24.66
2023-04-30T12:57:19.777Z,24.60
2023-04-30T13:00:08.583Z,24.50
2023-04-30T13:02:56.381Z,24.20
2023-04-30T13:05:48.920Z,24.41
2023-04-30T13:08:56.292Z,24.97
2023-04-30T13:11:45.877Z,24.95
2023-04-30T13:14:38.848Z,24.90
2023-04-30T13:17:26.840Z,24.06
2023-04-30T13:20:25.437Z,24.60
2023-04-30T13:23:13.325Z,24.62
2023-04-30T13:26:01.114Z,24.98
2023-04-30T13:28:52.609Z,24.79
2023-04-30T13:31:43.178Z,24.74
2023-04-30T13:34:39.300Z,24.89
2023-04-30T13:37:27.035Z,24.81
2023-04-30T13:40:15.305Z,24.92
2023-04-30T13:43:03.030Z,24.78
2023-04-30T13:45:51.523Z,24.80
2023-04-30T13:48:39.222Z,24.31
2023-04-30T13:51:28.077Z,24.25
2023-04-30T13:54:17.943Z,23.70
2023-04-30T13:57:06.812Z,23.54
2023-04-30T13:59:54.657Z,23.56
2023-04-30T14:02:42.698Z,23.20
2023-04-30T14:05:30.921Z,23.12
2023-04-30T14:08:19.338Z,23.36
2023-04-30T14:11:10.709Z,23.35
2023-04-30T14:14:01.452Z,23.09
2023-04-30T14:16:49.203Z,22.84
2023-04-30T14:19:37.065Z,23.01
2023-04-30T14:22:24.713Z,23.32
2023-04-30T14:25:13.048Z,23.34
2023-04-30T14:28:03.190Z,23.41
2023-04-30T14:30:50.822Z,23.44
2023-04-30T14:33:38.706Z,23.80
2023-04-30T14:36:27.840Z,23.72
2023-04-30T14:39:15.579Z,24.03
2023-04-30T14:42:03.686Z,23.77
2023-04-30T14:44:57.501Z,24.00
2023-04-30T14:47:48.333Z,23.71
2023-04-30T14:50:36.075Z,23.18
2023-04-30T14:53:35.632Z,22.96
2023-04-30T14:56:29.862Z,23.18
2023-04-30T14:59:18.105Z,22.95
2023-04-30T15:02:06.137Z,22.82
2023-04-30T15:04:53.837Z,22.99
2023-04-30T15:07:41.514Z,23.00
2023-04-30T15:10:29.237Z,22.99
2023-04-30T15:13:16.983Z,22.80
2023-04-30T15:16:05.292Z,22.81
2023-04-30T15:18:55.820Z,22.52
2023-04-30T15:21:43.767Z,22.43
2023-04-30T15:24:34.757Z,22.71
2023-04-30T15:27:23.329Z,22.81
2023-04-30T15:30:11.496Z,22.77
2023-04-30T15:33:02.438Z,22.56
2023-04-30T15:35:50.190Z,22.56
2023-04-30T15:38:46.024Z,22.67
2023-04-30T15:41:34.580Z,22.72
2023-04-30T15:44:25.295Z,22.47
2023-04-30T15:47:13.017Z,22.53
2023-04-30T15:50:02.829Z,22.09
2023-04-30T15:52:53.844Z,22.08
2023-04-30T15:55:41.596Z,21.51
2023-04-30T15:58:29.397Z,21.04
2023-04-30T16:01:17.065Z,21.08
2023-04-30T16:04:05.081Z,21.04
2023-04-30T16:06:53.774Z,20.88
2023-04-30T16:09:45.786Z,21.14
2023-04-30T16:12:34.487Z,21.12
2023-04-30T16:15:22.242Z,21.17
2023-04-30T16:18:10.385Z,21.17
2023-04-30T16:21:04.501Z,21.37
2023-04-30T16:23:53.250Z,21.27
2023-04-30T16:26:40.984Z,21.48
2023-04-30T16:29:28.620Z,21.67
2023-04-30T16:32:16.519Z,21.40
2023-04-30T16:35:04.688Z,21.05
2023-04-30T16:37:54.367Z,21.15
2023-04-30T16:40:44.905Z,20.90
2023-04-30T16:43:32.614Z,20.80
2023-04-30T16:46:20.339Z,20.65
2023-04-30T16:49:08.171Z,20.59
2023-04-30T16:52:01.822Z,20.19
2023-04-30T16:54:50.237Z,20.05
2023-04-30T16:57:37.846Z,19.84
2023-04-30T17:00:26.017Z,19.59
2023-04-30T17:03:14.828Z,19.59
2023-04-30T17:06:02.705Z,19.68
2023-04-30T17:08:50.406Z,19.34
2023-04-30T17:11:38.072Z,19.19
2023-04-30T17:14:25.754Z,18.97
2023-04-30T17:17:13.585Z,18.56
2023-04-30T17:20:04.116Z,18.44
2023-04-30T17:22:53.603Z,18.15
2023-04-30T17:25:44.029Z,17.54
2023-04-30T17:28:33.034Z,17.64
2023-04-30T17:31:24.416Z,17.32
2023-04-30T17:34:12.722Z,17.37
2023-04-30T17:37:02.955Z,17.36
2023-04-30T17:39:50.585Z,17.13
2023-04-30T17:42:39.366Z,17.01
2023-04-30T17:45:27.365Z,16.97
2023-04-30T17:48:15.120Z,16.73
2023-04-30T17:51:03.696Z,16.69
2023-04-30T17:53:51.350Z,16.59
2023-04-30T17:56:39.054Z,16.36
2023-04-30T17:59:29.349Z,16.29
2023-04-30T18:02:17.241Z,16.20
2023-04-30T18:05:05.272Z,16.03
2023-04-30T18:07:52.953Z,16.10
2023-04-30T18:10:40.825Z,15.98
2023-04-30T18:13:28.740Z,15.87
2023-04-30T18:16:16.472Z,15.84
2023-04-30T18:19:05.678Z,15.64
2023-04-30T18:21:53.463Z,15.76
2023-04-30T18:24:42.623Z,15.55
2023-04-30T18:27:30.504Z,15.54
2023-04-30T18:30:18.240Z,15.55
2023-04-30T18:33:06.736Z,15.47
2023-04-30T18:35:54.962Z,15.18
2023-04-30T18:38:42.730Z,15.28
2023-04-30T18:41:30.332Z,15.20
2023-04-30T18:44:18.325Z,14.98
2023-04-30T18:47:07.062Z,15.13
2023-04-30T18:49:55.032Z,15.07
2023-04-30T18:52:42.933Z,15.01
2023-04-30T18:55:37.987Z,14.90
2023-04-30T18:58:28.342Z,15.03
2023-04-30T19:01:16.094Z,15.00
2023-04-30T19:04:06.739Z,14.96
2023-04-30T19:06:55.991Z,14.82
2023-04-30T19:09:48.669Z,14.89
2023-04-30T19:12:36.377Z,14.66
2023-04-30T19:15:29.705Z,14.50
2023-04-30T19:18:18.076Z,14.54
2023-04-30T19:21:06.130Z,14.36
2023-04-30T19:23:53.855Z,14.42
2023-04-30T19:26:43.211Z,14.43
2023-04-30T19:29:31.591Z,14.50
2023-04-30T19:32:20.811Z,14.38
2023-04-30T19:35:11.564Z,14.45
2023-04-30T19:37:59.172Z,14.53
2023-04-30T19:40:54.548Z,14.61
2023-04-30T19:43:42.375Z,14.64
2023-04-30T19:46:30.117Z,14.78
2023-04-30T19:49:17.840Z,14.58
2023-04-30T19:52:07.958Z,14.44
2023-04-30T19:54:55.973Z,14.43
2023-04-30T19:57:43.833Z,14.24
2023-04-30T20:00:32.582Z,14.39
2023-04-30T20:03:28.735Z,14.10
2023-04-30T20:06:16.634Z,14.14
2023-04-30T20:09:04.464Z,13.96
2023-04-30T20:11:52.388Z,13.88
2023-04-30T20:14:40.124Z,13.71
2023-04-30T20:17:27.967Z,13.90
2023-04-30T20:20:25.197Z,13.87
2023-04-30T20:23:14.839Z,13.79
2023-04-30T20:26:02.851Z,13.92
2023-04-30T20:28:31.066Z,13.81
2023-04-30T20:31:19.158Z,13.77
2023-04-30T20:34:09.928Z,13.66
2023-04-30T20:36:57.561Z,13.65
2023-04-30T20:39:45.184Z,13.42
2023-04-30T20:42:32.858Z,13.28
2023-04-30T20:45:21.227Z,13.48
2023-04-30T20:48:09.364Z,13.50
2023-04-30T20:50:57.102Z,13.36
2023-04-30T20:53:44.872Z,13.12
2023-04-30T20:56:32.957Z,13.01
2023-04-30T20:59:20.760Z,12.95
2023-04-30T21:02:09.276Z,12.82
2023-04-30T21:04:58.679Z,12.93
2023-04-30T21:07:46.526Z,12.87
2023-04-30T21:10:36.802Z,12.84
2023-04-30T21:13:24.828Z,12.91
2023-04-30T21:16:15.423Z,12.78
2023-04-30T21:19:03.666Z,12.81
2023-04-30T21:21:51.409Z,12.91
2023-04-30T21:24:40.016Z,12.83
2023-04-30T21:27:28.241Z,12.72
2023-04-30T21:30:17.227Z,12.78
2023-04-30T21:33:05.008Z,12.66
2023-04-30T21:35:58.086Z,12.80
2023-04-30T21:38:45.675Z,12.96
2023-04-30T21:41:33.424Z,12.94
2023-04-30T21:44:21.255Z,12.90
2023-04-30T21:47:08.949Z,12.91
2023-04-30T21:49:57.133Z,13.12
2023-04-30T21:52:45.037Z,12.91
2023-04-30T21:55:32.801Z,12.85
2023-04-30T21:58:20.550Z,13.04
2023-04-30T22:01:08.448Z,13.10
2023-04-30T22:03:57.323Z,13.15
2023-04-30T22:06:45.301Z,13.23
2023-04-30T22:09:33.070Z,13.21
2023-04-30T22:12:21.682Z,13.28
2023-04-30T22:15:09.782Z,13.31
2023-04-30T22:17:57.751Z,13.46
2023-04-30T22:20:45.459Z,13.28
2023-04-30T22:23:33.163Z,13.23
2023-04-30T22:26:23.150Z,13.27
2023-04-30T22:29:11.902Z,13.32
2023-04-30T22:32:00.407Z,13.20
2023-04-30T22:34:48.884Z,13.30
2023-04-30T22:37:38.931Z,13.48
2023-04-30T22:40:26.668Z,13.33
2023-04-30T22:43:14.584Z,13.32
2023-04-30T22:46:02.475Z,13.48
2023-04-30T22:48:50.876Z,13.31
2023-04-30T22:51:41.042Z,13.24
2023-04-30T22:54:34.188Z,13.47
2023-04-30T22:57:23.146Z,13.55
2023-04-30T23:00:11.878Z,13.45
2023-04-30T23:02:59.567Z,13.37
2023-04-30T23:05:51.698Z,13.36
2023-04-30T23:08:39.466Z,13.59
2023-04-30T23:11:27.359Z,13.51
2023-04-30T23:14:15.088Z,13.62
2023-04-30T23:17:03.460Z,13.47
2023-04-30T23:19:51.093Z,13.44
2023-04-30T23:22:38.799Z,13.41
2023-04-30T23:25:26.767Z,13.38
2023-04-30T23:28:14.487Z,13.29
2023-04-30T23:31:02.099Z,13.30
2023-04-30T23:33:49.827Z,13.24
2023-04-30T23:36:37.526Z,13.17
2023-04-30T23:39:27.495Z,13.19
2023-04-30T23:42:15.110Z,13.09
2023-04-30T23:45:03.147Z,12.98
2023-04-30T23:47:51.945Z,12.61
2023-04-30T23:50:39.681Z,12.62
2023-04-30T23:53:28.600Z,12.45
2023-04-30T23:56:18.741Z,12.44
2023-04-30T23:59:07.370Z,12.49
